Time;durP1;ratioP1;P1;durP2;ratioP2;P2;SDS_P1;SDS_P2;PMS_P1;PMS_P2;Temp;Humidity;BMP_temperature;BMP_pressure;BME280_temperature;BME280_humidity;BME280_pressure;Samples;Min_cycle;Max_cycle;Signal;HPM_P1;HPM_P2
2023/02/15 00:01:48;;;;;;;42.45;15.88;;;6.30;99.90;;;;;;5032642;28;20072;-29
2023/02/15 00:04:16;;;;;;;38.47;16.67;;;6.20;99.90;;;;;;5049289;28;20134;-30
2023/02/15 00:06:42;;;;;;;32.67;15.15;;;6.20;99.90;;;;;;5052780;28;20516;-29
2023/02/15 00:09:09;;;;;;;36.60;14.90;;;6.10;99.90;;;;;;5052674;28;20053;-29
2023/02/15 00:11:49;;;;;;;32.08;13.95;;;6.10;99.90;;;;;;5039182;28;20030;-31
2023/02/15 00:14:15;;;;;;;36.22;14.75;;;6.10;99.90;;;;;;5041900;28;20119;-31
2023/02/15 00:16:42;;;;;;;34.90;15.77;;;6.00;99.90;;;;;;5047964;28;20105;-31
2023/02/15 00:19:09;;;;;;;41.75;16.02;;;5.90;99.90;;;;;;5052375;28;20021;-30
2023/02/15 00:21:36;;;;;;;27.13;12.10;;;5.90;99.90;;;;;;5050618;28;20477;-32
2023/02/15 00:24:03;;;;;;;37.15;15.77;;;5.90;99.90;;;;;;5052313;28;20520;-29
2023/02/15 00:26:29;;;;;;;40.50;16.17;;;5.90;99.90;;;;;;5045737;28;20029;-32
2023/02/15 00:28:58;;;;;;;37.85;15.88;;;5.90;99.90;;;;;;5043018;28;20021;-29
2023/02/15 00:31:27;;;;;;;39.25;16.42;;;5.90;99.90;;;;;;5048615;28;20067;-34
2023/02/15 00:33:53;;;;;;;38.15;15.25;;;5.90;99.90;;;;;;5055986;28;20497;-28
2023/02/15 00:36:18;;;;;;;33.60;16.45;;;5.90;99.90;;;;;;5056091;28;20025;-31
2023/02/15 00:38:44;;;;;;;37.58;15.43;;;5.80;99.90;;;;;;5050748;28;20492;-29
2023/02/15 00:41:10;;;;;;;32.97;15.73;;;5.80;99.90;;;;;;5054308;28;20044;-32
2023/02/15 00:43:36;;;;;;;32.03;15.90;;;5.70;99.90;;;;;;5038082;28;20037;-28
2023/02/15 00:46:03;;;;;;;37.45;16.98;;;5.80;99.90;;;;;;5038724;28;20389;-29
2023/02/15 00:48:29;;;;;;;29.33;13.88;;;5.80;99.90;;;;;;5053686;28;20028;-29
2023/02/15 00:50:57;;;;;;;35.67;16.17;;;5.80;99.90;;;;;;5055777;28;20555;-50
2023/02/15 00:53:23;;;;;;;41.08;16.75;;;5.70;99.90;;;;;;5045248;28;20442;-38
2023/02/15 00:55:49;;;;;;;41.78;17.80;;;5.70;99.90;;;;;;5016009;28;20528;-38
2023/02/15 00:58:15;;;;;;;37.88;15.32;;;5.70;99.90;;;;;;5014746;28;20021;-38
2023/02/15 01:00:44;;;;;;;41.55;16.20;;;5.70;99.90;;;;;;5015986;28;20478;-37
2023/02/15 01:03:10;;;;;;;40.65;15.93;;;5.70;99.90;;;;;;5051739;28;20021;-42
2023/02/15 01:05:35;;;;;;;36.28;16.33;;;5.70;99.90;;;;;;5055594;28;20523;-63
2023/02/15 01:08:01;;;;;;;36.38;15.65;;;5.70;99.90;;;;;;5054812;28;20037;-39
2023/02/15 01:10:27;;;;;;;39.15;16.67;;;5.70;99.90;;;;;;5051318;28;20037;-38
2023/02/15 01:12:54;;;;;;;37.15;15.88;;;5.80;99.90;;;;;;5055350;28;20028;-39
2023/02/15 01:15:20;;;;;;;32.53;15.18;;;5.90;99.90;;;;;;5039218;28;20025;-37
2023/02/15 01:17:51;;;;;;;40.15;16.25;;;6.00;99.90;;;;;;5042675;28;20023;-38
2023/02/15 01:20:17;;;;;;;35.40;15.68;;;6.00;99.90;;;;;;5052893;28;20052;-39
2023/02/15 01:22:43;;;;;;;32.55;15.88;;;6.00;99.90;;;;;;5055289;28;20378;-50
2023/02/15 01:25:09;;;;;;;39.90;15.85;;;5.90;99.90;;;;;;5055231;28;20060;-38
2023/02/15 01:27:34;;;;;;;34.97;15.50;;;5.80;99.90;;;;;;5053909;28;20500;-38
2023/02/15 01:30:00;;;;;;;36.55;15.23;;;5.90;99.90;;;;;;5055195;28;20024;-38
2023/02/15 01:32:26;;;;;;;40.50;16.65;;;6.10;99.90;;;;;;5051533;28;20442;-38
2023/02/15 01:34:52;;;;;;;39.38;17.08;;;6.10;99.90;;;;;;5054887;28;20124;-39
2023/02/15 01:37:18;;;;;;;32.25;15.32;;;6.10;99.90;;;;;;5055101;28;20068;-38
2023/02/15 01:39:43;;;;;;;33.03;15.13;;;6.10;99.90;;;;;;5052478;28;20030;-39
2023/02/15 01:42:12;;;;;;;37.53;15.38;;;6.10;99.90;;;;;;5045598;28;20040;-40
2023/02/15 01:44:53;;;;;;;40.10;15.65;;;6.10;99.90;;;;;;5053252;28;20497;-38
2023/02/15 01:47:42;;;;;;;39.83;15.63;;;6.20;99.90;;;;;;5039822;28;20080;-40
2023/02/15 01:50:33;;;;;;;44.78;15.88;;;6.20;99.90;;;;;;5034901;28;20022;-39
2023/02/15 01:53:22;;;;;;;41.58;16.75;;;6.20;99.90;;;;;;5034752;28;20474;-40
2023/02/15 01:55:59;;;;;;;30.58;15.05;;;6.20;99.90;;;;;;5018582;28;20043;-40
2023/02/15 01:58:27;;;;;;;29.02;15.13;;;6.10;99.90;;;;;;5050530;28;20064;-40
2023/02/15 02:00:55;;;;;;;36.58;16.40;;;6.10;99.90;;;;;;5040047;28;20043;-40
2023/02/15 02:03:51;;;;;;;39.58;15.85;;;6.10;99.90;;;;;;5054131;28;20068;-39
2023/02/15 02:06:18;;;;;;;37.70;15.60;;;6.10;99.90;;;;;;5046039;28;20029;-39
2023/02/15 02:08:44;;;;;;;38.50;16.50;;;6.20;99.90;;;;;;5052026;28;20465;-41
2023/02/15 02:11:11;;;;;;;34.15;15.90;;;6.10;99.90;;;;;;5054302;28;20021;-39
2023/02/15 02:13:38;;;;;;;40.65;16.00;;;6.10;99.90;;;;;;5043191;28;20030;-38
2023/02/15 02:16:27;;;;;;;32.42;14.80;;;6.00;99.90;;;;;;5037686;28;20021;-39
2023/02/15 02:19:25;;;;;;;36.30;15.90;;;6.00;99.90;;;;;;5051124;28;20047;-39
2023/02/15 02:22:08;;;;;;;33.72;16.17;;;5.90;99.90;;;;;;5054472;28;20044;-38
2023/02/15 02:24:34;;;;;;;37.15;16.25;;;5.90;99.90;;;;;;5017321;28;20486;-43
2023/02/15 02:27:22;;;;;;;47.75;15.90;;;5.90;99.90;;;;;;5025085;28;20033;-40
2023/02/15 02:30:14;;;;;;;44.08;16.40;;;5.80;99.90;;;;;;5054055;28;20504;-39
2023/02/15 02:33:04;;;;;;;32.70;14.63;;;5.80;99.90;;;;;;5051874;28;20024;-38
2023/02/15 02:35:37;;;;;;;34.03;14.52;;;5.80;99.90;;;;;;5053676;28;20413;-40
2023/02/15 02:38:09;;;;;;;29.83;13.82;;;5.80;99.90;;;;;;5051442;28;20104;-40
2023/02/15 02:40:50;;;;;;;40.78;16.35;;;5.80;99.90;;;;;;5014292;28;20482;-39
2023/02/15 02:43:26;;;;;;;34.80;16.30;;;5.90;99.90;;;;;;5042501;28;20031;-39
2023/02/15 02:46:30;;;;;;;35.60;14.13;;;5.90;99.90;;;;;;5053744;28;20106;-39
2023/02/15 02:48:56;;;;;;;35.70;15.27;;;5.90;99.90;;;;;;5013399;28;20048;-39
2023/02/15 02:51:24;;;;;;;40.60;15.38;;;5.80;99.90;;;;;;5014075;28;20033;-39
2023/02/15 02:53:53;;;;;;;25.42;11.00;;;5.80;99.90;;;;;;5033095;28;20490;-29
2023/02/15 02:56:23;;;;;;;35.42;14.55;;;5.90;99.90;;;;;;5033743;28;20492;-30
2023/02/15 02:59:02;;;;;;;32.22;14.95;;;5.80;99.90;;;;;;5044798;28;20027;-29
2023/02/15 03:01:33;;;;;;;45.22;15.93;;;5.80;99.90;;;;;;5051118;28;20108;-31
2023/02/15 03:04:12;;;;;;;37.95;15.77;;;5.80;99.90;;;;;;5053235;28;20025;-31
2023/02/15 03:06:47;;;;;;;35.88;15.50;;;5.70;99.90;;;;;;5053505;28;20544;-48
2023/02/15 03:09:20;;;;;;;35.03;14.95;;;5.70;99.90;;;;;;5032643;28;20037;-39
2023/02/15 03:11:46;;;;;;;39.33;14.50;;;5.60;99.90;;;;;;5042669;28;20104;-39
2023/02/15 03:14:14;;;;;;;30.73;15.50;;;5.60;99.90;;;;;;5053122;28;20480;-39
2023/02/15 03:16:43;;;;;;;36.78;16.25;;;5.60;99.90;;;;;;5051119;28;20442;-39
2023/02/15 03:19:30;;;;;;;37.70;14.15;;;5.60;99.90;;;;;;5050610;28;20495;-40
2023/02/15 03:22:11;;;;;;;35.95;15.65;;;5.60;99.90;;;;;;5053071;28;20025;-40
2023/02/15 03:24:42;;;;;;;33.97;15.57;;;5.60;99.90;;;;;;5051930;28;20535;-39
2023/02/15 03:27:17;;;;;;;41.05;15.98;;;5.50;99.90;;;;;;5051275;28;20036;-40
2023/02/15 03:29:47;;;;;;;37.05;15.70;;;5.50;99.90;;;;;;5053019;28;20051;-41
2023/02/15 03:32:15;;;;;;;36.47;13.90;;;5.50;99.90;;;;;;5050693;28;20040;-39
2023/02/15 03:34:41;;;;;;;32.80;13.55;;;5.50;99.90;;;;;;5052709;28;20036;-39
2023/02/15 03:37:15;;;;;;;39.88;15.05;;;5.40;99.90;;;;;;5051223;28;20381;-38
2023/02/15 03:39:55;;;;;;;31.45;14.32;;;5.40;99.90;;;;;;5050648;28;20025;-41
2023/02/15 03:42:31;;;;;;;36.53;14.70;;;5.30;99.90;;;;;;5045271;28;20462;-37
2023/02/15 03:45:03;;;;;;;31.98;13.93;;;5.20;99.90;;;;;;5031209;28;20039;-38
2023/02/15 03:47:34;;;;;;;34.28;14.57;;;5.20;99.90;;;;;;5013491;28;20026;-39
2023/02/15 03:51:33;;;;;;;41.63;16.15;;;5.10;99.90;;;;;;5013463;28;20473;-39
2023/02/15 03:52:52;;;;;;;31.40;13.48;;;5.10;99.90;;;;;;5012984;28;20061;-32
2023/02/15 03:55:17;;;;;;;33.63;13.82;;;5.10;99.90;;;;;;5012946;28;20501;-28
2023/02/15 04:03:32;;;;;;;40.45;16.35;;;5.20;99.90;;;;;;5050643;28;20511;-31
2023/02/15 04:05:58;;;;;;;36.10;15.10;;;5.30;99.90;;;;;;5051906;28;20036;-32
2023/02/15 04:10:51;;;;;;;36.97;15.85;;;5.20;99.90;;;;;;5056564;28;20020;-31
2023/02/15 04:11:09;;;;;;;35.83;14.70;;;5.20;99.90;;;;;;5055213;28;20039;-29
2023/02/15 04:13:35;;;;;;;31.00;15.52;;;5.10;99.90;;;;;;5056502;28;20104;-32
2023/02/15 04:16:04;;;;;;;30.88;14.13;;;5.10;99.90;;;;;;5056349;28;20100;-28
2023/02/15 04:26:57;;;;;;;39.58;15.52;;;5.00;99.90;;;;;;5046525;28;20075;-31
2023/02/15 04:29:24;;;;;;;31.08;14.77;;;4.90;99.90;;;;;;5031275;28;20063;-48
2023/02/15 04:31:51;;;;;;;35.30;13.73;;;4.90;99.90;;;;;;5056247;28;20017;-38
2023/02/15 04:34:17;;;;;;;33.22;13.88;;;4.80;99.90;;;;;;5050566;28;20052;-40
2023/02/15 04:36:42;;;;;;;37.95;14.90;;;4.80;99.90;;;;;;5053380;28;20021;-38
2023/02/15 04:39:09;;;;;;;33.58;13.50;;;4.80;99.90;;;;;;5056066;28;20021;-39
2023/02/15 04:41:34;;;;;;;31.55;14.50;;;4.80;99.90;;;;;;5054839;28;20526;-40
2023/02/15 04:44:01;;;;;;;40.08;13.98;;;4.80;99.90;;;;;;5034127;28;20025;-38
2023/02/15 04:46:27;;;;;;;33.58;14.88;;;4.80;99.90;;;;;;5045309;28;20025;-40
2023/02/15 04:48:53;;;;;;;33.35;14.00;;;4.70;99.90;;;;;;5052985;28;20044;-42
2023/02/15 04:51:19;;;;;;;35.58;13.32;;;4.70;99.90;;;;;;5055877;28;20021;-38
2023/02/15 04:53:45;;;;;;;40.53;14.35;;;4.70;99.90;;;;;;5055767;28;20083;-38
2023/02/15 04:56:10;;;;;;;29.67;13.90;;;4.60;99.90;;;;;;5052614;28;20546;-38
2023/02/15 04:58:36;;;;;;;33.40;13.88;;;4.60;99.90;;;;;;5015996;28;20028;-38
2023/02/15 05:01:03;;;;;;;36.05;13.65;;;4.50;99.90;;;;;;5022315;28;20116;-39
2023/02/15 05:03:29;;;;;;;35.25;14.38;;;4.50;99.90;;;;;;5049764;28;20029;-39
2023/02/15 05:05:54;;;;;;;41.70;13.75;;;4.50;99.90;;;;;;5055480;28;20477;-30
2023/02/15 05:08:20;;;;;;;33.63;13.43;;;4.50;99.90;;;;;;5050967;28;20113;-32
2023/02/15 05:10:48;;;;;;;37.90;13.38;;;4.40;99.90;;;;;;5036685;28;20028;-38
2023/02/15 05:13:14;;;;;;;30.90;13.02;;;4.40;99.90;;;;;;5054300;28;20470;-31
2023/02/15 05:15:40;;;;;;;32.20;13.02;;;4.30;99.90;;;;;;5052342;28;20025;-39
2023/02/15 05:18:07;;;;;;;34.03;13.80;;;4.30;99.90;;;;;;5051270;28;20025;-41
2023/02/15 05:20:33;;;;;;;33.70;14.23;;;4.30;99.90;;;;;;5051982;28;20059;-30
2023/02/15 05:22:58;;;;;;;29.15;13.30;;;4.30;99.90;;;;;;5052314;28;20590;-47
2023/02/15 05:28:19;;;;;;;34.33;13.45;;;4.30;99.90;;;;;;5055087;28;20036;-30
2023/02/15 05:30:46;;;;;;;32.92;12.85;;;4.30;99.90;;;;;;5055153;28;20041;-32
2023/02/15 05:33:11;;;;;;;32.33;13.32;;;4.20;99.90;;;;;;5054919;28;20021;-69
2023/02/15 05:35:37;;;;;;;32.22;13.10;;;4.10;99.90;;;;;;5042154;28;20033;-31
2023/02/15 05:38:03;;;;;;;30.98;12.73;;;4.00;99.90;;;;;;5034177;28;20021;-32
2023/02/15 05:40:28;;;;;;;30.42;13.93;;;3.90;99.90;;;;;;5036460;28;20552;-30
2023/02/15 05:42:54;;;;;;;36.28;13.05;;;3.90;99.90;;;;;;5048146;28;20100;-30
2023/02/15 05:45:20;;;;;;;33.05;12.70;;;3.90;99.90;;;;;;5050671;28;20028;-48
2023/02/15 05:47:45;;;;;;;28.58;12.80;;;3.90;99.90;;;;;;5054930;28;20021;-37
2023/02/15 05:50:11;;;;;;;36.42;13.80;;;3.90;99.90;;;;;;5050109;28;20048;-37
2023/02/15 05:52:37;;;;;;;33.97;14.00;;;4.00;99.90;;;;;;5051487;28;20050;-38
2023/02/15 05:55:04;;;;;;;27.52;12.63;;;4.00;99.90;;;;;;5052569;28;20021;-38
2023/02/15 05:57:30;;;;;;;30.80;12.70;;;4.00;99.90;;;;;;5034674;28;20390;-28
2023/02/15 05:59:56;;;;;;;32.92;13.98;;;4.00;99.90;;;;;;5036268;28;20021;-30
2023/02/15 06:02:21;;;;;;;27.40;12.10;;;3.90;99.90;;;;;;5051045;28;20021;-36
2023/02/15 06:04:47;;;;;;;29.13;13.00;;;3.80;99.90;;;;;;5054367;28;20021;-32
2023/02/15 06:07:13;;;;;;;28.88;13.68;;;3.80;99.90;;;;;;5054343;28;20032;-35
2023/02/15 06:09:38;;;;;;;30.98;13.90;;;3.80;99.90;;;;;;5047564;28;20021;-31
2023/02/15 06:12:04;;;;;;;29.15;13.05;;;3.80;99.90;;;;;;5048417;28;20033;-29
2023/02/15 06:14:30;;;;;;;32.22;13.05;;;3.70;99.90;;;;;;5043035;28;20529;-30
2023/02/15 06:16:56;;;;;;;37.45;14.65;;;3.70;99.90;;;;;;5054159;28;20099;-30
2023/02/15 06:19:22;;;;;;;29.52;12.85;;;3.80;99.90;;;;;;5048240;28;20064;-31
2023/02/15 06:21:48;;;;;;;33.97;13.82;;;3.80;99.90;;;;;;5034113;28;20021;-42
2023/02/15 06:24:14;;;;;;;31.73;14.00;;;3.70;99.90;;;;;;5034092;28;20049;-39
2023/02/15 06:26:39;;;;;;;26.10;12.52;;;3.70;99.90;;;;;;5039171;28;20029;-39
2023/02/15 06:29:05;;;;;;;34.08;13.82;;;3.60;99.90;;;;;;5051554;28;20099;-39
2023/02/15 06:31:31;;;;;;;29.15;12.68;;;3.70;99.90;;;;;;5033255;28;20132;-40
2023/02/15 06:34:00;;;;;;;30.55;13.05;;;3.70;99.90;;;;;;5033670;28;20052;-39
2023/02/15 06:36:28;;;;;;;27.20;12.63;;;3.60;99.90;;;;;;5032762;28;20026;-39
2023/02/15 06:38:54;;;;;;;25.13;12.85;;;3.60;99.90;;;;;;5034163;28;20483;-40
2023/02/15 06:41:20;;;;;;;30.30;12.88;;;3.60;99.90;;;;;;5040715;28;20151;-39
2023/02/15 06:43:45;;;;;;;31.60;13.90;;;3.60;99.90;;;;;;5043136;28;20051;-40
2023/02/15 06:46:11;;;;;;;39.30;13.50;;;3.60;99.90;;;;;;5046807;28;20029;-39
2023/02/15 06:48:37;;;;;;;34.22;14.15;;;3.50;99.90;;;;;;5033709;28;20034;-39
2023/02/15 06:51:03;;;;;;;28.20;12.68;;;3.50;99.90;;;;;;5039088;28;20037;-39
2023/02/15 06:53:29;;;;;;;33.00;13.35;;;3.40;99.90;;;;;;5050090;28;20074;-40
2023/02/15 06:56:08;;;;;;;37.85;13.63;;;3.40;99.90;;;;;;5043391;28;20113;-39
2023/02/15 06:58:39;;;;;;;27.00;12.77;;;3.40;99.90;;;;;;5050292;28;20025;-40
2023/02/15 07:01:05;;;;;;;33.88;13.25;;;3.40;99.90;;;;;;5052075;28;20029;-38
2023/02/15 07:03:31;;;;;;;37.97;13.57;;;3.40;99.90;;;;;;5040511;28;20033;-44
2023/02/15 07:05:58;;;;;;;28.17;11.75;;;3.40;99.90;;;;;;5042378;28;20082;-40
2023/02/15 07:08:25;;;;;;;34.55;13.13;;;3.50;99.90;;;;;;5052062;28;20040;-38
2023/02/15 07:10:52;;;;;;;33.60;13.93;;;3.50;99.90;;;;;;5053123;28;20091;-34
2023/02/15 07:13:18;;;;;;;34.53;13.07;;;3.50;99.90;;;;;;5052914;28;20428;-53
2023/02/15 07:15:45;;;;;;;29.95;11.98;;;3.50;99.90;;;;;;5046873;28;20298;-32
2023/02/15 07:18:10;;;;;;;41.75;14.10;;;3.50;99.90;;;;;;5053061;28;20048;-37
2023/02/15 07:20:37;;;;;;;27.60;12.43;;;3.50;99.90;;;;;;5036085;28;20021;-29
2023/02/15 07:23:04;;;;;;;35.83;14.38;;;3.50;99.90;;;;;;5033986;28;20112;-31
2023/02/15 07:25:29;;;;;;;29.00;12.63;;;3.50;99.90;;;;;;5051749;28;20032;-33
2023/02/15 07:28:03;;;;;;;32.10;14.60;;;3.50;99.90;;;;;;5049949;28;20464;-34
2023/02/15 07:30:29;;;;;;;31.80;12.27;;;3.60;99.90;;;;;;5048285;28;20477;-30
2023/02/15 07:35:51;;;;;;;31.33;12.65;;;3.50;99.90;;;;;;5032620;28;20048;-29
2023/02/15 07:38:17;;;;;;;30.70;14.75;;;3.60;99.90;;;;;;5026217;28;20532;-29
2023/02/15 07:40:44;;;;;;;34.08;13.73;;;3.60;99.90;;;;;;5049010;28;20052;-34
2023/02/15 07:43:10;;;;;;;34.90;14.43;;;3.60;99.90;;;;;;5038375;28;20541;-29
2023/02/15 07:45:36;;;;;;;33.42;12.85;;;3.70;99.90;;;;;;5032611;28;20109;-40
2023/02/15 07:48:03;;;;;;;37.03;14.13;;;3.70;99.90;;;;;;5032665;28;20021;-32
2023/02/15 07:50:29;;;;;;;36.65;14.30;;;3.70;99.90;;;;;;5031394;28;20038;-39
2023/02/15 07:52:54;;;;;;;30.92;13.25;;;3.70;99.90;;;;;;5038760;28;20127;-30
2023/02/15 07:55:20;;;;;;;40.13;14.70;;;3.80;99.90;;;;;;5038621;28;20541;-30
2023/02/15 07:57:48;;;;;;;31.85;13.48;;;3.90;99.90;;;;;;5032748;28;20025;-40
2023/02/15 08:00:19;;;;;;;32.25;15.15;;;3.90;99.90;;;;;;5030903;28;20474;-35
2023/02/15 08:03:12;;;;;;;33.72;14.05;;;4.00;99.90;;;;;;5052363;28;20402;-41
2023/02/15 08:05:35;;;;;;;37.67;14.95;;;4.00;99.90;;;;;;5052422;28;20130;-40
2023/02/15 08:08:01;;;;;;;31.98;14.52;;;4.10;99.90;;;;;;5052433;28;20060;-42
2023/02/15 08:11:25;;;;;;;41.00;14.88;;;4.10;99.90;;;;;;5052494;28;20033;-39
2023/02/15 08:13:12;;;;;;;34.78;14.35;;;4.10;99.90;;;;;;5032557;28;20045;-40
2023/02/15 08:15:37;;;;;;;32.60;14.05;;;4.20;99.90;;;;;;5044111;28;20155;-40
2023/02/15 08:18:03;;;;;;;39.88;14.68;;;4.20;99.90;;;;;;5035033;28;20029;-41
2023/02/15 08:20:29;;;;;;;36.92;15.45;;;4.30;99.90;;;;;;5037206;28;20513;-31
2023/02/15 08:22:54;;;;;;;38.50;14.05;;;4.40;99.90;;;;;;5032409;28;20522;-41
2023/02/15 08:25:20;;;;;;;31.85;14.15;;;4.50;99.90;;;;;;5032419;28;20037;-30
2023/02/15 08:27:45;;;;;;;29.70;13.95;;;4.50;99.90;;;;;;5032265;28;20497;-33
2023/02/15 08:30:14;;;;;;;34.38;14.02;;;4.60;99.90;;;;;;5035415;28;20405;-32
2023/02/15 08:32:39;;;;;;;;;;;4.80;99.90;;;;;;5052643;28;20112;-31
2023/02/15 08:35:06;;;;;;;38.20;13.57;;;4.90;99.90;;;;;;5052031;28;20388;-30
2023/02/15 08:37:32;;;;;;;39.75;14.85;;;4.90;99.90;;;;;;5049106;28;20033;-32
2023/02/15 08:39:57;;;;;;;30.63;14.68;;;4.90;99.90;;;;;;5050767;28;20063;-33
2023/02/15 08:42:23;;;;;;;32.40;14.50;;;5.00;99.90;;;;;;5050765;28;20024;-31
2023/02/15 08:44:50;;;;;;;33.72;14.63;;;5.10;99.90;;;;;;5052014;28;20436;-32
2023/02/15 08:47:16;;;;;;;33.97;14.27;;;5.20;99.90;;;;;;5031700;28;20036;-36
2023/02/15 08:49:41;;;;;;;39.25;15.38;;;5.20;99.90;;;;;;5025065;28;20284;-35
2023/02/15 08:52:07;;;;;;;37.03;16.83;;;5.20;99.90;;;;;;5021640;28;20440;-32
2023/02/15 08:54:33;;;;;;;31.23;14.20;;;5.40;99.90;;;;;;5029002;28;20037;-30
2023/02/15 08:56:59;;;;;;;33.60;14.48;;;5.50;99.90;;;;;;5023200;28;20093;-31
2023/02/15 08:59:26;;;;;;;35.22;14.98;;;5.50;99.90;;;;;;5024641;28;20028;-38
2023/02/15 09:01:53;;;;;;;35.00;13.70;;;5.50;99.90;;;;;;5023781;28;20021;-52
2023/02/15 09:04:20;;;;;;;40.58;15.90;;;5.60;99.90;;;;;;5017502;28;20763;-38
2023/02/15 09:06:47;;;;;;;42.63;16.45;;;5.70;99.90;;;;;;5030297;28;20022;-48
2023/02/15 09:09:12;;;;;;;33.63;15.00;;;5.80;99.90;;;;;;5028867;28;20436;-38
2023/02/15 09:11:43;;;;;;;37.28;16.02;;;5.80;99.90;;;;;;5038589;28;20052;-40
2023/02/15 09:14:13;;;;;;;35.83;14.52;;;6.00;99.90;;;;;;5033754;28;20021;-39
2023/02/15 09:16:40;;;;;;;39.85;16.23;;;6.10;99.90;;;;;;5040881;28;20427;-40
2023/02/15 09:19:07;;;;;;;38.17;15.67;;;6.20;99.90;;;;;;5052367;28;20032;-39
2023/02/15 09:21:35;;;;;;;44.17;16.33;;;6.30;99.90;;;;;;5021134;28;20591;-39
2023/02/15 09:24:04;;;;;;;36.92;16.50;;;6.30;99.90;;;;;;5053929;28;20099;-41
2023/02/15 09:26:32;;;;;;;33.75;15.80;;;6.40;99.90;;;;;;5050368;28;20056;-39
2023/02/15 09:29:01;;;;;;;36.28;15.85;;;6.50;99.90;;;;;;5035565;28;20056;-39
2023/02/15 09:31:29;;;;;;;43.25;16.67;;;6.50;99.90;;;;;;5035460;28;20488;-39
2023/02/15 09:33:55;;;;;;;34.50;15.27;;;6.60;99.90;;;;;;5034849;28;20080;-39
2023/02/15 09:36:23;;;;;;;38.47;16.70;;;6.60;99.90;;;;;;5043463;28;20030;-38
2023/02/15 09:39:08;;;;;;;35.97;15.13;;;6.70;99.90;;;;;;5023312;28;20486;-40
2023/02/15 09:41:55;;;;;;;34.78;15.15;;;6.70;99.90;;;;;;5040662;28;20397;-39
2023/02/15 09:44:46;;;;;;;40.45;16.90;;;6.90;99.90;;;;;;5037958;28;20034;-39
2023/02/15 09:47:21;;;;;;;36.70;15.93;;;7.10;99.90;;;;;;5034907;28;20041;-37
2023/02/15 09:50:15;;;;;;;33.35;15.45;;;7.10;99.90;;;;;;5034978;28;20363;-40
2023/02/15 09:52:53;;;;;;;42.10;17.73;;;7.30;99.90;;;;;;5038651;28;20079;-41
2023/02/15 10:34:17;;;;;;;39.33;16.40;;;8.30;99.90;;;;;;5017948;28;20076;-40
2023/02/15 10:36:57;;;;;;;39.63;18.15;;;8.50;99.90;;;;;;4998071;28;20371;-38
2023/02/15 10:39:43;;;;;;;36.70;16.48;;;8.60;99.90;;;;;;5002492;28;20056;-41
2023/02/15 10:42:20;;;;;;;41.95;17.95;;;8.70;99.90;;;;;;5014673;28;20025;-55
2023/02/15 10:45:05;;;;;;;39.67;16.85;;;8.90;99.90;;;;;;5021070;28;20064;-52
2023/02/15 10:48:20;;;;;;;37.40;17.25;;;9.00;99.90;;;;;;5032922;28;20477;-40
2023/02/15 10:51:00;;;;;;;37.17;16.70;;;9.20;99.90;;;;;;5013910;28;20494;-41
2023/02/15 10:54:01;;;;;;;34.65;17.40;;;9.30;99.90;;;;;;5011983;28;20089;-41
2023/02/15 10:56:51;;;;;;;42.60;16.75;;;9.40;99.90;;;;;;4996794;28;20038;-39
2023/02/15 10:59:45;;;;;;;38.72;16.48;;;9.50;99.90;;;;;;5016305;28;20780;-40
2023/02/15 11:02:24;;;;;;;42.47;17.30;;;9.60;99.90;;;;;;5019053;28;20029;-38
2023/02/15 11:04:59;;;;;;;43.65;18.25;;;9.70;99.90;;;;;;5008320;28;20030;-39
2023/02/15 11:07:32;;;;;;;42.33;18.15;;;9.80;99.90;;;;;;4999839;28;20770;-40
2023/02/15 11:10:26;;;;;;;42.35;17.50;;;9.90;99.90;;;;;;5011404;28;20540;-42
2023/02/15 11:12:54;;;;;;;40.35;17.98;;;10.00;99.90;;;;;;5011075;28;20042;-41
2023/02/15 11:15:36;;;;;;;48.70;19.80;;;10.10;99.90;;;;;;5012844;28;20521;-40
2023/02/15 11:18:05;;;;;;;38.90;17.73;;;10.30;99.90;;;;;;5012530;28;20471;-40
2023/02/15 11:21:13;;;;;;;43.58;18.33;;;10.40;99.90;;;;;;5029513;28;20030;-40
2023/02/15 11:23:44;;;;;;;44.75;18.15;;;10.50;99.90;;;;;;5026528;28;20033;-37
2023/02/15 11:26:16;;;;;;;41.47;18.23;;;10.40;99.90;;;;;;4998866;28;20033;-41
2023/02/15 11:28:59;;;;;;;42.80;18.65;;;10.50;99.90;;;;;;5015373;28;20045;-40
2023/02/15 11:31:30;;;;;;;42.40;18.80;;;10.60;99.90;;;;;;5014429;28;20042;-39
2023/02/15 11:34:03;;;;;;;44.38;18.48;;;10.70;99.90;;;;;;4995640;28;20088;-39
2023/02/15 11:36:36;;;;;;;56.60;20.50;;;10.80;99.90;;;;;;5037425;28;20127;-40
2023/02/15 11:39:14;;;;;;;38.83;18.83;;;11.00;99.90;;;;;;5051689;28;20037;-40
2023/02/15 11:41:44;;;;;;;53.83;21.52;;;11.00;99.90;;;;;;5052823;28;20036;-40
2023/02/15 11:44:50;;;;;;;43.63;19.60;;;11.10;99.90;;;;;;5035370;28;20513;-40
2023/02/15 11:47:16;;;;;;;40.78;19.02;;;11.20;99.90;;;;;;5024243;28;20039;-39
2023/02/15 11:49:41;;;;;;;36.58;17.73;;;11.30;99.90;;;;;;5036050;28;20101;-53
2023/02/15 11:52:12;;;;;;;43.40;18.88;;;11.50;99.90;;;;;;5038953;28;20029;-40
2023/02/15 11:54:49;;;;;;;45.78;19.02;;;11.70;99.90;;;;;;5039330;28;20536;-41
2023/02/15 11:57:38;;;;;;;40.95;18.73;;;11.70;99.90;;;;;;5032807;28;20496;-45
2023/02/15 12:00:14;;;;;;;38.92;18.38;;;11.90;99.90;;;;;;5032030;28;20029;-39
2023/02/15 12:02:46;;;;;;;40.78;19.50;;;12.00;99.90;;;;;;5030923;28;20033;-40
2023/02/15 12:05:18;;;;;;;43.90;20.48;;;12.10;99.90;;;;;;5043179;28;20442;-40
2023/02/15 12:07:49;;;;;;;49.33;20.05;;;12.00;99.90;;;;;;5032062;28;20063;-40
2023/02/15 12:10:25;;;;;;;44.10;19.23;;;12.00;99.90;;;;;;5032036;28;20029;-41
2023/02/15 12:13:17;;;;;;;44.47;19.90;;;12.10;99.90;;;;;;5032491;28;20026;-41
2023/02/15 12:15:48;;;;;;;43.92;19.27;;;12.10;99.90;;;;;;5031687;28;20021;-40
2023/02/15 12:18:44;;;;;;;50.63;21.00;;;12.20;99.90;;;;;;5032444;28;20038;-40
2023/02/15 12:21:26;;;;;;;41.00;19.95;;;12.30;99.90;;;;;;5034347;28;20030;-40
2023/02/15 12:23:55;;;;;;;41.95;20.67;;;12.30;99.90;;;;;;5021504;28;20033;-39
2023/02/15 12:26:25;;;;;;;49.00;20.38;;;12.50;99.90;;;;;;5039400;28;20034;-40
2023/02/15 12:28:54;;;;;;;40.72;19.63;;;12.60;99.90;;;;;;5034951;28;20528;-39
2023/02/15 12:31:34;;;;;;;43.97;20.23;;;12.90;99.90;;;;;;5039070;28;20029;-40
2023/02/15 12:34:02;;;;;;;43.35;20.30;;;12.90;99.90;;;;;;5037621;28;20021;-41
2023/02/15 12:36:44;;;;;;;49.88;21.38;;;13.10;99.90;;;;;;5046907;28;20090;-40
2023/02/15 12:39:12;;;;;;;50.72;20.45;;;13.00;99.90;;;;;;5050803;28;20083;-41
2023/02/15 12:41:57;;;;;;;49.70;20.80;;;13.10;99.90;;;;;;5036082;28;20418;-43
2023/02/15 12:44:34;;;;;;;44.88;20.75;;;13.10;99.90;;;;;;5035389;28;20056;-42
2023/02/15 12:47:05;;;;;;;43.88;22.10;;;13.20;99.90;;;;;;5047748;28;20031;-42
2023/02/15 12:49:32;;;;;;;44.38;21.23;;;13.30;99.90;;;;;;5033680;28;20030;-41
2023/02/15 12:52:01;;;;;;;45.78;20.00;;;13.40;99.90;;;;;;5035869;28;20025;-42
2023/02/15 12:54:42;;;;;;;44.90;19.77;;;13.40;99.90;;;;;;5037730;28;20040;-41
2023/02/15 12:57:22;;;;;;;37.25;19.17;;;13.40;99.90;;;;;;5047151;28;20021;-40
2023/02/15 12:59:58;;;;;;;45.60;20.85;;;13.20;99.90;;;;;;5039230;28;20021;-42
2023/02/15 13:02:34;;;;;;;50.28;20.02;;;13.10;99.90;;;;;;5047942;28;20025;-41
2023/02/15 13:05:27;;;;;;;41.08;19.77;;;13.00;99.90;;;;;;5055683;28;20039;-41
2023/02/15 13:07:58;;;;;;;36.70;18.33;;;13.00;99.90;;;;;;5037197;28;20033;-40
2023/02/15 13:10:28;;;;;;;43.17;19.70;;;13.00;99.90;;;;;;5033807;28;20029;-42
2023/02/15 13:12:57;;;;;;;38.92;18.63;;;13.00;99.90;;;;;;5035734;28;20112;-44
2023/02/15 13:15:35;;;;;;;44.55;19.27;;;13.00;99.90;;;;;;5039241;28;20029;-40
2023/02/15 13:18:02;;;;;;;41.22;19.38;;;13.00;99.90;;;;;;5024697;28;20108;-40
2023/02/15 13:20:28;;;;;;;45.20;20.52;;;13.10;99.90;;;;;;5043340;28;20519;-42
2023/02/15 13:23:04;;;;;;;49.55;19.83;;;13.10;99.90;;;;;;5035332;28;20112;-41
2023/02/15 13:25:35;;;;;;;51.88;20.23;;;13.20;99.90;;;;;;5030290;28;20370;-43
2023/02/15 13:28:04;;;;;;;55.33;19.98;;;13.30;99.90;;;;;;5040118;28;20079;-42
2023/02/15 13:30:34;;;;;;;41.92;19.08;;;13.40;99.90;;;;;;5043562;28;20112;-40
2023/02/15 13:33:10;;;;;;;46.85;20.20;;;13.50;99.90;;;;;;5028226;28;20504;-40
2023/02/15 13:35:44;;;;;;;47.92;21.20;;;13.50;99.90;;;;;;5024908;28;20093;-40
2023/02/15 13:38:51;;;;;;;44.13;20.85;;;13.50;99.90;;;;;;5025811;28;20031;-41
2023/02/15 13:41:30;;;;;;;;;;;13.40;99.90;;;;;;5036223;28;20394;-41
2023/02/15 13:44:35;;;;;;;43.92;19.77;;;13.30;99.90;;;;;;5022749;28;20465;-41
2023/02/15 13:47:16;;;;;;;44.55;20.33;;;13.30;99.90;;;;;;5026628;28;20570;-39
2023/02/15 13:50:19;;;;;;;48.08;21.13;;;13.10;99.90;;;;;;5039065;28;20041;-41
2023/02/15 13:53:27;;;;;;;44.20;19.80;;;13.10;99.90;;;;;;5032817;28;20366;-41
2023/02/15 13:56:31;;;;;;;42.22;20.02;;;13.00;99.90;;;;;;5054181;28;20103;-41
2023/02/15 13:59:21;;;;;;;44.20;19.42;;;13.00;99.90;;;;;;5046701;28;20072;-40